createdAt,value
2018-11-20T00:05:12.934Z,16.47
2018-11-20T00:10:57.896Z,22.00
2018-11-20T00:16:46.619Z,17.83
2018-11-20T00:22:15.579Z,20.10
2018-11-20T00:27:52.688Z,24.87
2018-11-20T00:33:31.279Z,23.73
2018-11-20T00:39:13.132Z,23.57
2018-11-20T00:44:41.426Z,23.63
2018-11-20T00:50:29.383Z,23.67
2018-11-20T00:56:58.881Z,25.67
2018-11-20T01:02:37.687Z,23.80
2018-11-20T01:08:22.705Z,31.17
2018-11-20T01:14:00.026Z,24.70
2018-11-20T01:19:38.665Z,34.20
2018-11-20T01:25:17.992Z,31.55
2018-11-20T01:31:08.430Z,28.87
2018-11-20T01:36:43.309Z,31.30
2018-11-20T01:42:28.292Z,30.73
2018-11-20T01:48:18.694Z,31.97
2018-11-20T01:53:56.444Z,31.00
2018-11-20T01:59:29.386Z,34.50
2018-11-20T02:05:07.163Z,31.33
2018-11-20T02:10:48.503Z,37.77
2018-11-20T02:16:36.673Z,34.20
2018-11-20T02:22:14.536Z,33.40
2018-11-20T02:27:56.408Z,33.17
2018-11-20T02:33:34.459Z,34.20
2018-11-20T02:39:14.001Z,40.23
2018-11-20T02:44:52.390Z,41.23
2018-11-20T02:50:30.864Z,34.80
2018-11-20T02:56:19.240Z,38.80
2018-11-20T03:02:06.889Z,38.80
2018-11-20T03:08:04.227Z,32.17
2018-11-20T03:13:46.330Z,37.40
2018-11-20T03:19:25.119Z,33.47
2018-11-20T03:25:03.286Z,32.10
2018-11-20T03:31:15.817Z,38.55
2018-11-20T03:37:03.611Z,34.40
2018-11-20T03:42:51.245Z,29.37
2018-11-20T03:48:30.206Z,32.37
2018-11-20T03:54:06.971Z,34.00
2018-11-20T03:59:48.793Z,32.30
2018-11-20T04:05:20.821Z,32.07
2018-11-20T04:10:59.451Z,30.60
2018-11-20T04:16:50.641Z,28.57
2018-11-20T04:22:41.768Z,33.50
2018-11-20T04:28:18.887Z,34.90
2018-11-20T04:34:17.607Z,26.60
2018-11-20T04:39:55.323Z,30.07
2018-11-20T04:45:33.349Z,28.10
2018-11-20T04:51:17.992Z,25.47
2018-11-20T04:57:06.137Z,25.40
2018-11-20T05:02:47.829Z,28.93
2018-11-20T05:08:42.017Z,31.10
2018-11-20T05:14:30.011Z,28.60
2018-11-20T05:20:07.747Z,25.03
2018-11-20T05:25:44.920Z,29.57
2018-11-20T05:31:22.838Z,26.30
2018-11-20T05:36:51.879Z,28.97
2018-11-20T05:42:29.501Z,30.80
2018-11-20T05:48:14.226Z,28.17
2018-11-20T05:53:49.586Z,27.93
2018-11-20T05:59:27.443Z,28.60
2018-11-20T06:05:24.420Z,29.07
2018-11-20T06:11:12.434Z,32.47
2018-11-20T06:16:55.264Z,31.80
2018-11-20T06:22:46.175Z,26.10
2018-11-20T06:28:28.157Z,28.57
2018-11-20T06:34:05.976Z,27.47
2018-11-20T06:39:50.519Z,32.27
2018-11-20T06:45:22.968Z,32.45
2018-11-20T06:51:00.400Z,30.87
2018-11-20T06:56:37.956Z,32.13
2018-11-20T07:02:15.337Z,30.10
2018-11-20T07:07:53.163Z,34.80
2018-11-20T07:13:54.421Z,28.90
2018-11-20T07:19:32.417Z,29.18
2018-11-20T07:25:11.064Z,33.30
2018-11-20T07:30:53.706Z,33.60
2018-11-20T07:36:39.370Z,31.30
2018-11-20T07:42:33.359Z,31.73
2018-11-20T07:48:10.695Z,29.03
2018-11-20T07:53:55.531Z,34.53
2018-11-20T07:59:33.200Z,32.37
2018-11-20T08:05:06.899Z,33.93
2018-11-20T08:10:32.975Z,36.03
2018-11-20T08:16:14.456Z,36.80
2018-11-20T08:21:51.843Z,39.10
2018-11-20T08:27:45.367Z,34.77
2018-11-20T08:33:22.720Z,36.03
2018-11-20T08:39:07.178Z,35.23
2018-11-20T08:44:44.436Z,38.47
2018-11-20T08:50:21.256Z,40.48
2018-11-20T08:55:53.761Z,32.83
2018-11-20T09:01:27.690Z,41.57
2018-11-20T09:07:12.918Z,39.67
2018-11-20T09:12:50.117Z,37.27
2018-11-20T09:18:27.547Z,38.77
2018-11-20T09:24:12.558Z,40.30
2018-11-20T09:29:41.596Z,42.40
2018-11-20T09:35:19.234Z,38.93
2018-11-20T09:41:07.029Z,41.23
2018-11-20T09:46:44.143Z,41.23
2018-11-20T09:52:25.617Z,37.70
2018-11-20T09:57:57.029Z,33.43
2018-11-20T10:03:48.215Z,34.83
2018-11-20T10:09:29.865Z,33.30
2018-11-20T10:15:05.472Z,35.50
2018-11-20T10:20:43.145Z,38.58
2018-11-20T10:26:24.907Z,34.73
2018-11-20T10:32:10.552Z,38.50
2018-11-20T10:37:48.046Z,30.67
2018-11-20T10:43:32.840Z,35.70
2018-11-20T10:49:10.568Z,34.27
2018-11-20T10:54:52.831Z,33.35
2018-11-20T11:00:30.538Z,35.17
2018-11-20T11:06:00.224Z,32.17
2018-11-20T11:11:38.191Z,30.60
2018-11-20T11:17:29.444Z,29.47
2018-11-20T11:23:11.333Z,32.13
2018-11-20T11:28:51.416Z,40.90
2018-11-20T11:34:34.932Z,30.73
2018-11-20T11:40:02.892Z,35.23
2018-11-20T11:45:47.697Z,32.77
2018-11-20T11:51:14.605Z,31.60
2018-11-20T11:56:52.649Z,35.27
2018-11-20T12:08:18.047Z,33.23
2018-11-20T12:13:55.502Z,38.37
2018-11-20T12:19:32.865Z,33.10
2018-11-20T12:25:08.067Z,33.87
2018-11-20T12:30:47.109Z,34.73
2018-11-20T12:36:30.521Z,36.93
2018-11-20T12:42:02.551Z,37.10
2018-11-20T12:47:37.860Z,35.27
2018-11-20T12:53:21.271Z,44.15
2018-11-20T12:58:53.994Z,40.73
2018-11-20T13:04:29.783Z,44.43
2018-11-20T13:10:07.284Z,41.17
2018-11-20T13:15:47.113Z,39.13
2018-11-20T13:21:27.542Z,37.20
2018-11-20T13:27:04.880Z,45.90
2018-11-20T13:32:40.648Z,46.33
2018-11-20T13:38:37.409Z,38.50
2018-11-20T13:44:18.935Z,41.53
2018-11-20T13:49:57.458Z,43.90
2018-11-20T13:55:35.726Z,41.67
2018-11-20T14:01:23.027Z,38.80
2018-11-20T14:07:05.050Z,43.23
2018-11-20T14:13:01.606Z,49.70
2018-11-20T14:18:35.691Z,45.87
2018-11-20T14:24:17.140Z,42.97
2018-11-20T14:29:56.171Z,43.53
2018-11-20T14:35:35.398Z,45.00
2018-11-20T14:41:19.773Z,40.28
2018-11-20T14:47:09.646Z,43.33
2018-11-20T14:53:00.630Z,40.23
2018-11-20T14:58:42.552Z,53.23
2018-11-20T15:04:19.654Z,45.43
2018-11-20T15:10:09.591Z,45.43
2018-11-20T15:15:47.466Z,42.07
2018-11-20T15:21:26.241Z,42.80
2018-11-20T15:27:04.227Z,42.47
2018-11-20T15:32:41.719Z,40.20
2018-11-20T15:38:22.840Z,40.83
2018-11-20T15:44:07.241Z,35.10
2018-11-20T15:49:58.792Z,38.37
2018-11-20T15:55:36.543Z,36.83
2018-11-20T16:01:22.921Z,30.70
2018-11-20T16:07:01.540Z,26.00
2018-11-20T16:12:32.255Z,26.90
2018-11-20T16:18:07.160Z,30.50
2018-11-20T16:23:45.414Z,26.90
2018-11-20T16:29:32.791Z,23.73
2018-11-20T16:35:10.272Z,20.67
2018-11-20T16:40:55.200Z,22.93
2018-11-20T16:46:34.324Z,21.47
2018-11-20T16:52:11.632Z,27.83
2018-11-20T16:57:49.064Z,24.50
2018-11-20T17:03:34.169Z,19.30
2018-11-20T17:09:12.613Z,24.90
2018-11-20T17:15:09.769Z,22.65
2018-11-20T17:20:51.844Z,23.73
2018-11-20T17:26:31.952Z,23.43
2018-11-20T17:32:10.202Z,27.03
2018-11-20T17:37:49.422Z,26.67
2018-11-20T17:43:39.923Z,27.83
2018-11-20T17:49:25.172Z,27.43
2018-11-20T17:55:16.324Z,25.67
2018-11-20T18:00:55.977Z,25.53
2018-11-20T18:06:40.886Z,25.53
2018-11-20T18:12:19.816Z,27.63
2018-11-20T18:18:01.913Z,26.60
2018-11-20T18:23:49.812Z,27.27
2018-11-20T18:29:31.372Z,28.23
2018-11-20T18:35:09.169Z,26.43
2018-11-20T18:40:56.781Z,28.10
2018-11-20T18:46:43.774Z,28.20
2018-11-20T18:52:25.033Z,26.40
2018-11-20T18:58:02.282Z,28.33
2018-11-20T19:03:44.533Z,24.53
2018-11-20T19:09:23.566Z,26.07
2018-11-20T19:15:08.051Z,24.47
2018-11-20T19:20:49.458Z,24.27
2018-11-20T19:26:36.950Z,25.27
2018-11-20T19:32:14.134Z,25.97
2018-11-20T19:37:51.586Z,23.83
2018-11-20T19:43:36.885Z,28.80
2018-11-20T19:49:24.753Z,30.60
2018-11-20T19:55:04.176Z,25.20
2018-11-20T20:07:16.850Z,30.17
2018-11-20T20:12:53.242Z,25.73
2018-11-20T20:18:34.869Z,23.10
2018-11-20T20:24:04.051Z,28.23
2018-11-20T20:29:37.346Z,25.57
2018-11-20T20:35:15.198Z,25.83
2018-11-20T20:41:04.885Z,25.48
2018-11-20T20:46:45.241Z,24.87
2018-11-20T20:52:20.845Z,30.90
2018-11-20T20:58:09.011Z,31.53
2018-11-20T21:03:53.190Z,28.80
2018-11-20T21:09:40.277Z,27.50
2018-11-20T21:15:20.985Z,28.50
2018-11-20T21:20:58.363Z,26.07
2018-11-20T21:26:37.277Z,27.97
2018-11-20T21:32:14.192Z,29.57
2018-11-20T21:37:58.338Z,23.50
2018-11-20T21:43:48.678Z,24.27
2018-11-20T21:49:53.027Z,28.33
2018-11-20T21:55:50.285Z,27.17
2018-11-20T22:01:32.662Z,26.97
2018-11-20T22:07:15.519Z,30.27
2018-11-20T22:12:52.769Z,28.00
2018-11-20T22:18:43.234Z,34.03
2018-11-20T22:24:21.555Z,28.27
2018-11-20T22:29:59.495Z,32.27
2018-11-20T22:35:36.705Z,26.97
2018-11-20T22:41:28.122Z,27.97
2018-11-20T22:47:14.666Z,29.30
2018-11-20T22:52:50.869Z,31.83
2018-11-20T22:58:31.917Z,33.07
2018-11-20T23:04:08.712Z,32.33
2018-11-20T23:09:29.161Z,32.33
2018-11-20T23:14:49.251Z,33.07
2018-11-20T23:20:14.832Z,37.90
2018-11-20T23:25:34.458Z,32.93
2018-11-20T23:30:53.540Z,30.80
2018-11-20T23:36:29.000Z,32.20
2018-11-20T23:41:49.054Z,35.93
2018-11-20T23:47:08.654Z,41.80
2018-11-20T23:52:29.865Z,37.10
2018-11-20T23:57:50.227Z,36.70
